createdAt,value
2023-01-19T00:00:15.860Z,100.00
2023-01-19T00:02:44.373Z,100.00
2023-01-19T00:05:11.589Z,100.00
2023-01-19T00:07:38.060Z,100.00
2023-01-19T00:10:04.702Z,100.00
2023-01-19T00:12:31.269Z,100.00
2023-01-19T00:14:58.836Z,100.00
2023-01-19T00:17:25.330Z,100.00
2023-01-19T00:19:51.690Z,100.00
2023-01-19T00:22:18.209Z,100.00
2023-01-19T00:24:46.853Z,100.00
2023-01-19T00:27:13.325Z,100.00
2023-01-19T00:29:39.814Z,100.00
2023-01-19T00:32:06.939Z,100.00
2023-01-19T00:34:49.564Z,100.00
2023-01-19T00:37:17.078Z,100.00
2023-01-19T00:39:43.836Z,100.00
2023-01-19T00:42:32.458Z,100.00
2023-01-19T00:44:58.867Z,100.00
2023-01-19T00:47:25.578Z,100.00
2023-01-19T00:49:52.248Z,100.00
2023-01-19T00:52:19.226Z,100.00
2023-01-19T00:54:45.681Z,100.00
2023-01-19T00:57:12.393Z,100.00
2023-01-19T00:59:39.067Z,100.00
2023-01-19T01:02:05.620Z,100.00
2023-01-19T01:04:32.414Z,100.00
2023-01-19T01:06:58.839Z,100.00
2023-01-19T01:09:25.313Z,100.00
2023-01-19T01:11:51.922Z,100.00
2023-01-19T01:14:19.338Z,100.00
2023-01-19T01:16:47.004Z,100.00
2023-01-19T01:19:13.463Z,100.00
2023-01-19T01:21:39.992Z,100.00
2023-01-19T01:24:06.897Z,100.00
2023-01-19T01:26:33.415Z,100.00
2023-01-19T01:28:59.966Z,100.00
2023-01-19T01:31:26.460Z,100.00
2023-01-19T01:33:52.820Z,100.00
2023-01-19T01:36:19.253Z,100.00
2023-01-19T01:38:45.725Z,100.00
2023-01-19T01:41:12.702Z,100.00
2023-01-19T01:44:02.007Z,100.00
2023-01-19T01:46:31.312Z,100.00
2023-01-19T01:49:03.682Z,100.00
2023-01-19T01:51:43.787Z,100.00
2023-01-19T01:54:28.921Z,100.00
2023-01-19T01:57:01.790Z,100.00
2023-01-19T01:59:39.220Z,100.00
2023-01-19T02:02:30.064Z,100.00
2023-01-19T02:05:04.122Z,100.00
2023-01-19T02:08:01.833Z,100.00
2023-01-19T02:10:46.906Z,100.00
2023-01-19T02:13:22.714Z,100.00
2023-01-19T02:15:51.809Z,100.00
2023-01-19T02:18:21.220Z,100.00
2023-01-19T02:21:10.831Z,100.00
2023-01-19T02:23:46.343Z,100.00
2023-01-19T02:26:25.004Z,100.00
2023-01-19T02:29:04.231Z,100.00
2023-01-19T02:31:32.909Z,100.00
2023-01-19T02:34:01.942Z,100.00
2023-01-19T02:36:52.695Z,100.00
2023-01-19T02:39:25.760Z,100.00
2023-01-19T02:41:57.245Z,100.00
2023-01-19T02:44:27.729Z,100.00
2023-01-19T02:46:54.896Z,100.00
2023-01-19T02:49:21.434Z,100.00
2023-01-19T02:51:48.566Z,100.00
2023-01-19T02:54:50.009Z,100.00
2023-01-19T02:57:25.639Z,100.00
2023-01-19T03:00:08.107Z,100.00
2023-01-19T03:02:44.071Z,100.00
2023-01-19T03:05:33.571Z,100.00
2023-01-19T03:08:12.351Z,100.00
2023-01-19T03:10:48.380Z,100.00
2023-01-19T03:13:47.022Z,100.00
2023-01-19T03:16:29.745Z,100.00
2023-01-19T03:19:04.043Z,100.00
2023-01-19T03:21:34.229Z,100.00
2023-01-19T03:24:05.556Z,100.00
2023-01-19T03:26:37.521Z,100.00
2023-01-19T03:29:07.472Z,100.00
2023-01-19T03:31:34.869Z,100.00
2023-01-19T03:34:06.825Z,100.00
2023-01-19T03:36:38.187Z,100.00
2023-01-19T03:39:07.822Z,100.00
2023-01-19T03:41:36.726Z,100.00
2023-01-19T03:44:05.554Z,100.00
2023-01-19T03:46:33.016Z,100.00
2023-01-19T03:49:00.216Z,100.00
2023-01-19T03:51:27.193Z,100.00
2023-01-19T03:53:53.631Z,100.00
2023-01-19T03:56:22.075Z,100.00
2023-01-19T03:58:48.804Z,100.00
2023-01-19T04:01:16.548Z,100.00
2023-01-19T04:03:43.153Z,100.00
2023-01-19T04:06:10.547Z,100.00
2023-01-19T04:08:37.090Z,100.00
2023-01-19T04:11:03.688Z,100.00
2023-01-19T04:13:30.509Z,100.00
2023-01-19T04:16:04.431Z,100.00
2023-01-19T04:18:33.911Z,100.00
2023-01-19T04:21:06.223Z,100.00
2023-01-19T04:23:33.757Z,100.00
2023-01-19T04:26:03.179Z,100.00
2023-01-19T04:28:29.899Z,100.00
2023-01-19T04:30:56.897Z,100.00
2023-01-19T04:33:24.182Z,100.00
2023-01-19T04:35:53.576Z,100.00
2023-01-19T04:38:21.047Z,100.00
2023-01-19T04:40:49.938Z,100.00
2023-01-19T04:43:17.255Z,100.00
2023-01-19T04:45:46.609Z,100.00
2023-01-19T04:48:14.035Z,100.00
2023-01-19T04:50:41.552Z,100.00
2023-01-19T04:53:08.491Z,100.00
2023-01-19T04:55:35.162Z,100.00
2023-01-19T04:58:01.672Z,100.00
2023-01-19T05:00:28.192Z,100.00
2023-01-19T05:02:54.857Z,100.00
2023-01-19T05:05:21.684Z,100.00
2023-01-19T05:07:48.145Z,100.00
2023-01-19T05:10:17.597Z,100.00
2023-01-19T05:12:44.293Z,100.00
2023-01-19T05:15:11.254Z,100.00
2023-01-19T05:17:38.263Z,100.00
2023-01-19T05:20:05.621Z,100.00
2023-01-19T05:22:32.214Z,100.00
2023-01-19T05:24:58.693Z,100.00
2023-01-19T05:27:25.116Z,100.00
2023-01-19T05:29:52.157Z,100.00
2023-01-19T05:32:19.204Z,100.00
2023-01-19T05:34:45.767Z,100.00
2023-01-19T05:37:12.181Z,100.00
2023-01-19T05:39:38.591Z,100.00
2023-01-19T05:42:05.034Z,100.00
2023-01-19T05:44:31.474Z,100.00
2023-01-19T05:46:57.845Z,100.00
2023-01-19T05:49:24.313Z,100.00
2023-01-19T05:51:50.727Z,100.00
2023-01-19T05:54:17.304Z,100.00
2023-01-19T05:56:43.928Z,100.00
2023-01-19T05:59:10.939Z,100.00
2023-01-19T06:01:39.923Z,100.00
2023-01-19T06:04:11.281Z,100.00
2023-01-19T06:06:40.984Z,100.00
2023-01-19T06:09:07.965Z,100.00
2023-01-19T06:11:34.364Z,100.00
2023-01-19T06:14:08.044Z,100.00
2023-01-19T06:16:34.894Z,100.00
2023-01-19T06:19:01.375Z,100.00
2023-01-19T06:21:27.713Z,100.00
2023-01-19T06:23:58.264Z,100.00
2023-01-19T06:26:26.211Z,100.00
2023-01-19T06:28:52.916Z,100.00
2023-01-19T06:31:19.560Z,100.00
2023-01-19T06:33:46.354Z,100.00
2023-01-19T06:36:12.871Z,100.00
2023-01-19T06:38:39.298Z,100.00
2023-01-19T06:41:05.851Z,100.00
2023-01-19T06:43:32.516Z,99.96
2023-01-19T06:46:00.528Z,100.00
2023-01-19T06:48:27.356Z,99.88
2023-01-19T06:50:53.800Z,99.42
2023-01-19T06:53:22.271Z,99.67
2023-01-19T06:55:48.843Z,99.37
2023-01-19T06:58:15.474Z,98.86
2023-01-19T07:00:42.975Z,98.17
2023-01-19T07:03:18.921Z,98.55
2023-01-19T07:05:45.413Z,98.70
2023-01-19T07:08:11.878Z,98.58
2023-01-19T07:11:24.747Z,99.15
2023-01-19T07:13:25.245Z,99.56
2023-01-19T07:15:51.848Z,99.28
2023-01-19T07:18:18.362Z,98.81
2023-01-19T07:20:46.833Z,98.77
2023-01-19T07:23:13.321Z,98.22
2023-01-19T07:25:40.143Z,98.14
2023-01-19T07:28:07.152Z,98.22
2023-01-19T07:30:33.803Z,99.65
2023-01-19T07:33:00.880Z,97.79
2023-01-19T07:35:29.656Z,98.38
2023-01-19T07:37:56.308Z,97.21
2023-01-19T07:40:24.144Z,97.71
2023-01-19T07:42:52.130Z,97.63
2023-01-19T07:45:39.251Z,98.44
2023-01-19T07:55:26.782Z,98.27
2023-01-19T07:58:02.545Z,98.58
2023-01-19T08:00:31.882Z,98.40
2023-01-19T08:03:03.136Z,97.89
2023-01-19T08:05:35.810Z,96.24
2023-01-19T08:08:11.663Z,96.36
2023-01-19T08:10:38.989Z,96.62
2023-01-19T08:13:18.221Z,96.38
2023-01-19T08:15:45.268Z,95.83
2023-01-19T08:18:13.291Z,95.78
2023-01-19T08:20:39.988Z,95.22
2023-01-19T08:23:06.714Z,95.27
2023-01-19T08:33:17.716Z,95.53
2023-01-19T08:43:30.538Z,95.81
2023-01-19T08:45:57.292Z,95.81
2023-01-19T08:48:24.534Z,95.53
2023-01-19T08:50:52.584Z,95.49
2023-01-19T08:53:21.245Z,93.99
2023-01-19T08:56:20.816Z,93.07
2023-01-19T08:59:08.679Z,93.07
2023-01-19T09:01:38.851Z,93.00
2023-01-19T09:04:08.001Z,93.89
2023-01-19T09:06:36.613Z,93.45
2023-01-19T09:09:03.909Z,92.98
2023-01-19T09:11:31.584Z,93.79
2023-01-19T09:13:58.278Z,93.27
2023-01-19T09:16:27.212Z,92.08
2023-01-19T09:18:54.439Z,93.41
2023-01-19T09:21:21.372Z,92.82
2023-01-19T09:23:49.320Z,92.15
2023-01-19T09:26:16.714Z,93.11
2023-01-19T09:28:46.601Z,91.48
2023-01-19T09:31:15.589Z,90.58
2023-01-19T09:35:30.917Z,91.60
2023-01-19T09:44:23.159Z,90.27
2023-01-19T09:46:50.149Z,90.29
2023-01-19T09:49:46.893Z,88.82
2023-01-19T09:52:32.450Z,88.74
2023-01-19T09:55:01.601Z,87.52
2023-01-19T09:57:43.655Z,87.57
2023-01-19T10:00:16.924Z,86.77
2023-01-19T10:02:58.131Z,86.80
2023-01-19T10:05:29.225Z,86.50
2023-01-19T10:08:15.302Z,85.61
2023-01-19T10:10:48.202Z,87.10
2023-01-19T10:13:49.209Z,86.44
2023-01-19T10:16:45.494Z,86.85
2023-01-19T10:19:26.056Z,86.95
2023-01-19T10:21:55.340Z,86.74
2023-01-19T10:24:33.207Z,87.49
2023-01-19T10:27:00.953Z,86.09
2023-01-19T10:29:37.758Z,85.65
2023-01-19T10:32:13.882Z,85.88
2023-01-19T10:34:41.704Z,86.26
2023-01-19T10:37:21.624Z,86.43
2023-01-19T10:40:02.350Z,84.98
2023-01-19T10:42:30.280Z,84.32
2023-01-19T10:44:59.889Z,84.82
2023-01-19T10:47:49.596Z,85.52
2023-01-19T10:50:37.290Z,84.41
2023-01-19T10:53:08.075Z,84.27
2023-01-19T10:55:43.767Z,84.52
2023-01-19T10:58:35.321Z,84.80
2023-01-19T11:01:28.393Z,83.75
2023-01-19T11:03:57.271Z,82.96
2023-01-19T11:09:21.772Z,82.39
2023-01-19T11:11:56.344Z,82.64
2023-01-19T11:14:25.364Z,82.43
2023-01-19T11:16:58.768Z,82.14
2023-01-19T11:19:31.650Z,81.13
2023-01-19T11:22:33.046Z,82.73
2023-01-19T11:25:05.076Z,83.32
2023-01-19T11:27:36.708Z,82.42
2023-01-19T11:30:09.946Z,81.21
2023-01-19T11:32:41.586Z,80.23
2023-01-19T11:35:34.485Z,81.39
2023-01-19T11:38:22.911Z,81.57
2023-01-19T11:40:56.074Z,80.58
2023-01-19T11:43:31.814Z,81.05
2023-01-19T11:46:00.672Z,80.25
2023-01-19T11:48:33.942Z,79.89
2023-01-19T11:51:04.582Z,79.06
2023-01-19T11:53:34.277Z,78.55
2023-01-19T11:56:12.125Z,78.35
2023-01-19T11:58:41.487Z,79.05
2023-01-19T12:01:16.728Z,78.02
2023-01-19T12:03:54.709Z,78.56
2023-01-19T12:06:30.080Z,79.86
2023-01-19T12:09:11.732Z,79.56
2023-01-19T12:11:45.771Z,77.96
2023-01-19T12:14:27.132Z,78.36
2023-01-19T12:16:59.915Z,78.23
2023-01-19T12:19:51.566Z,77.17
2023-01-19T12:22:21.112Z,78.98
2023-01-19T12:24:52.111Z,79.66
2023-01-19T12:27:36.780Z,78.45
2023-01-19T12:30:04.135Z,78.45
2023-01-19T12:32:36.960Z,77.53
2023-01-19T12:35:03.625Z,79.40
2023-01-19T12:37:41.794Z,78.58
2023-01-19T12:40:31.204Z,79.21
2023-01-19T12:43:02.212Z,77.25
2023-01-19T12:45:38.087Z,78.66
2023-01-19T12:48:06.933Z,77.31
2023-01-19T12:50:38.116Z,77.38
2023-01-19T12:53:15.730Z,77.70
2023-01-19T12:55:46.872Z,77.50
2023-01-19T12:58:47.310Z,76.89
2023-01-19T13:01:21.180Z,76.93
2023-01-19T13:04:23.139Z,77.29
2023-01-19T13:06:49.548Z,77.06
2023-01-19T13:09:29.942Z,75.68
2023-01-19T13:12:14.790Z,75.52
2023-01-19T13:14:43.206Z,77.48
2023-01-19T13:17:32.198Z,76.28
2023-01-19T13:20:22.927Z,77.01
2023-01-19T13:23:24.993Z,76.41
2023-01-19T13:26:05.448Z,76.50
2023-01-19T13:28:39.514Z,76.76
2023-01-19T13:31:07.138Z,76.11
2023-01-19T13:34:04.177Z,75.24
2023-01-19T13:36:33.625Z,75.38
2023-01-19T13:39:03.708Z,74.30
2023-01-19T13:41:36.550Z,75.00
2023-01-19T13:44:25.831Z,74.69
2023-01-19T13:46:53.969Z,74.92
2023-01-19T13:49:36.282Z,74.70
2023-01-19T13:52:23.304Z,74.72
2023-01-19T13:54:55.044Z,75.14
2023-01-19T13:57:33.041Z,77.27
2023-01-19T14:00:09.745Z,76.78
2023-01-19T14:02:36.675Z,77.72
2023-01-19T14:05:23.816Z,77.92
2023-01-19T14:08:05.384Z,76.92
2023-01-19T14:10:33.753Z,77.14
2023-01-19T14:13:05.695Z,77.85
2023-01-19T14:15:48.106Z,78.02
2023-01-19T14:18:22.059Z,77.40
2023-01-19T14:21:22.225Z,78.41
2023-01-19T14:35:51.436Z,79.51
2023-01-19T15:14:57.840Z,81.95
2023-01-19T15:17:27.085Z,82.06
2023-01-19T15:19:54.971Z,82.93
2023-01-19T15:22:22.788Z,82.03
2023-01-19T15:24:49.851Z,82.88
2023-01-19T15:27:17.039Z,83.23
2023-01-19T15:29:45.574Z,82.92
2023-01-19T15:32:53.220Z,83.22
2023-01-19T15:35:52.170Z,82.65
2023-01-19T15:38:38.462Z,82.89
2023-01-19T16:04:00.104Z,86.08
2023-01-19T16:10:56.885Z,85.04
2023-01-19T16:17:07.249Z,85.70
2023-01-19T16:26:34.727Z,85.80
2023-01-19T16:32:07.342Z,86.41
2023-01-19T16:34:43.442Z,88.65
2023-01-19T16:38:07.560Z,88.34
2023-01-19T16:40:30.604Z,88.54
2023-01-19T16:42:58.528Z,88.74
2023-01-19T16:45:25.012Z,87.72
2023-01-19T16:47:52.612Z,87.16
2023-01-19T16:50:27.237Z,87.83
2023-01-19T16:52:57.701Z,87.92
2023-01-19T16:55:24.359Z,87.79
2023-01-19T16:57:52.664Z,87.38
2023-01-19T17:00:19.340Z,87.11
2023-01-19T17:02:46.074Z,86.40
2023-01-19T17:05:12.993Z,86.52
2023-01-19T17:07:39.776Z,86.54
2023-01-19T17:10:10.001Z,86.65
2023-01-19T17:12:36.792Z,89.01
2023-01-19T17:15:03.300Z,88.07
2023-01-19T17:17:29.851Z,88.53
2023-01-19T17:22:50.701Z,88.50
2023-01-19T17:25:17.403Z,87.61
2023-01-19T17:27:44.042Z,88.88
2023-01-19T17:30:11.342Z,87.80
2023-01-19T17:32:38.071Z,88.62
2023-01-19T17:35:04.797Z,88.35
2023-01-19T17:37:36.268Z,87.07
2023-01-19T17:40:14.810Z,86.13
2023-01-19T17:42:42.133Z,86.75
2023-01-19T17:45:10.904Z,85.86
2023-01-19T17:47:38.559Z,85.52
2023-01-19T17:50:05.595Z,85.62
2023-01-19T17:52:34.565Z,85.50
2023-01-19T17:55:01.147Z,85.45
2023-01-19T17:57:28.152Z,85.09
2023-01-19T17:59:54.681Z,86.29
2023-01-19T18:02:24.566Z,85.76
2023-01-19T18:04:54.965Z,85.62
2023-01-19T18:07:26.718Z,84.69
2023-01-19T18:09:56.020Z,84.68
2023-01-19T18:12:24.772Z,85.43
2023-01-19T18:14:51.796Z,85.25
2023-01-19T18:17:18.668Z,84.92
2023-01-19T18:19:45.666Z,85.87
2023-01-19T18:26:03.841Z,86.35
2023-01-19T18:28:33.049Z,86.57
2023-01-19T18:31:02.466Z,86.24
2023-01-19T18:33:29.155Z,85.82
2023-01-19T18:35:57.460Z,84.65
2023-01-19T18:38:23.980Z,86.34
2023-01-19T18:41:16.337Z,85.62
2023-01-19T18:43:43.615Z,86.95
2023-01-19T18:46:10.965Z,86.91
2023-01-19T18:48:38.857Z,86.42
2023-01-19T18:51:10.772Z,86.28
2023-01-19T18:53:37.629Z,85.92
2023-01-19T18:56:04.848Z,85.35
2023-01-19T18:58:32.842Z,85.64
2023-01-19T19:01:01.122Z,85.23
2023-01-19T19:03:36.387Z,85.30
2023-01-19T19:06:03.818Z,85.56
2023-01-19T19:08:30.474Z,86.42
2023-01-19T19:10:57.031Z,85.24
2023-01-19T19:13:23.718Z,85.40
2023-01-19T19:15:52.586Z,85.05
2023-01-19T19:18:19.446Z,85.47
2023-01-19T19:20:45.974Z,86.85
2023-01-19T19:23:12.328Z,86.37
2023-01-19T19:25:38.968Z,86.36
2023-01-19T19:28:05.964Z,85.06
2023-01-19T19:30:34.649Z,85.74
2023-01-19T19:33:01.637Z,84.97
2023-01-19T19:35:28.283Z,84.25
2023-01-19T19:37:57.813Z,84.69
2023-01-19T19:40:28.452Z,85.05
2023-01-19T19:42:56.972Z,84.29
2023-01-19T19:45:25.403Z,84.08
2023-01-19T19:47:52.040Z,84.08
2023-01-19T19:50:18.988Z,83.64
2023-01-19T19:52:45.761Z,84.85
2023-01-19T19:55:24.252Z,84.29
2023-01-19T20:01:46.182Z,84.23
2023-01-19T20:05:31.631Z,84.75
2023-01-19T20:08:50.955Z,85.25
2023-01-19T20:33:07.004Z,86.79
2023-01-19T20:35:41.858Z,87.71
2023-01-19T20:44:57.017Z,88.50
2023-01-19T20:50:52.564Z,87.59
2023-01-19T20:53:34.757Z,87.79
2023-01-19T21:06:34.579Z,88.15
2023-01-19T21:09:11.934Z,87.82
2023-01-19T21:11:50.586Z,87.08
2023-01-19T21:15:07.171Z,87.31
2023-01-19T21:17:17.432Z,87.33
2023-01-19T21:27:10.285Z,87.72
2023-01-19T21:29:48.179Z,87.49
2023-01-19T21:35:31.702Z,87.22
2023-01-19T21:38:35.596Z,88.26
2023-01-19T21:41:14.979Z,88.24
2023-01-19T21:46:52.327Z,87.48
2023-01-19T21:49:23.639Z,88.26
2023-01-19T21:52:08.029Z,87.61
2023-01-19T21:54:37.990Z,88.38
2023-01-19T21:57:31.155Z,88.31
2023-01-19T22:10:32.865Z,93.08
2023-01-19T22:13:14.513Z,91.62
2023-01-19T22:15:47.444Z,91.32
2023-01-19T22:18:29.419Z,91.08
2023-01-19T22:20:56.528Z,91.70
2023-01-19T22:23:23.177Z,93.97
2023-01-19T22:25:49.935Z,94.37
2023-01-19T22:28:16.647Z,93.97
2023-01-19T22:30:43.917Z,93.25
2023-01-19T22:33:12.729Z,92.66
2023-01-19T22:35:39.789Z,92.37
2023-01-19T22:38:06.732Z,93.65
2023-01-19T22:40:37.971Z,94.80
2023-01-19T22:43:04.519Z,95.34
2023-01-19T22:45:30.995Z,95.42
2023-01-19T22:47:59.668Z,95.65
2023-01-19T22:50:26.286Z,95.83
2023-01-19T22:52:55.824Z,98.21
2023-01-19T22:55:22.346Z,98.35
2023-01-19T22:57:48.781Z,99.05
2023-01-19T23:00:15.679Z,97.67
2023-01-19T23:02:43.803Z,97.11
2023-01-19T23:05:10.323Z,96.63
2023-01-19T23:07:45.008Z,96.55
2023-01-19T23:10:11.593Z,97.10
2023-01-19T23:12:41.592Z,97.14
2023-01-19T23:15:08.579Z,98.04
2023-01-19T23:17:35.118Z,99.01
2023-01-19T23:20:01.586Z,99.67
2023-01-19T23:22:28.113Z,100.00
2023-01-19T23:24:54.608Z,100.00
2023-01-19T23:27:37.611Z,100.00
2023-01-19T23:30:04.515Z,100.00
2023-01-19T23:32:31.053Z,100.00
2023-01-19T23:34:57.596Z,99.15
2023-01-19T23:37:24.154Z,100.00
2023-01-19T23:39:53.474Z,99.24
2023-01-19T23:42:21.088Z,98.78
2023-01-19T23:44:47.568Z,97.85
2023-01-19T23:47:14.011Z,99.24
2023-01-19T23:49:40.538Z,100.00
2023-01-19T23:52:07.645Z,98.93
2023-01-19T23:54:34.204Z,98.16
2023-01-19T23:57:00.627Z,99.57
2023-01-19T23:59:27.138Z,99.69
